KEVU

Northwest Missouri Regional Airport

Maryville, Missouri, USA
METAR KEVU 182015Z AUTO 08012KT 1SM -SN OVC002 00/00 A2986 RMK AO2
Observed Flight Rules
Jan-18 @ 20:15 UTC (26 minutes ago) Instrument Flight Rules
Wind Visibility Clouds Conditions
80° at 12 knots 1 miles
  • Overcast at 200' AGL
  • Light Snow
Temperatures Readings
Current 0°C / 32°F
Dewpoint 0°C / 32°F
Humidity 100%
Altimeter 29.86" Hg
Pressure 1011.22 hPa
Elevation 349
METAR KEVU 182015Z AUTO 08012KT 1SM -SN OVC002 00/00 A2986 RMK AO2
Observed Flight Rules
Jan-18 @ 20:15 UTC
(26 minutes ago)
LIFR
Wind Visibility
80° at 12 knots 1 miles
Clouds
  • Overcast at 200' AGL
Conditions
  • Light Snow
Temperature Dewpoint
0°C / 32°F 0°C / 32°F
Humidity Altimeter Pressure
100% 29.86" Hg 1011.22 hPa